createdAt,value
2018-02-03T00:00:01.242Z,99387.45
2018-02-03T00:01:09.136Z,99389.10
2018-02-03T00:02:15.337Z,99389.51
2018-02-03T00:03:21.523Z,99388.41
2018-02-03T00:04:27.921Z,99389.31
2018-02-03T00:05:34.143Z,99386.90
2018-02-03T00:06:40.278Z,99396.01
2018-02-03T00:07:46.536Z,99386.70
2018-02-03T00:08:52.710Z,99386.36
2018-02-03T00:09:58.063Z,99382.69
2018-02-03T00:11:04.364Z,99384.06
2018-02-03T00:12:10.176Z,99384.55
2018-02-03T00:13:16.716Z,99383.89
2018-02-03T00:14:22.854Z,99385.41
2018-02-03T00:15:28.719Z,99385.00
2018-02-03T00:16:34.891Z,99380.98
2018-02-03T00:17:41.067Z,99379.04
2018-02-03T00:18:49.205Z,99379.32
2018-02-03T00:19:54.741Z,99382.53
2018-02-03T00:21:00.899Z,99382.33
2018-02-03T00:22:07.024Z,99373.84
2018-02-03T00:23:12.960Z,99376.50
2018-02-03T00:24:18.831Z,99371.40
2018-02-03T00:25:25.024Z,99373.83
2018-02-03T00:26:31.203Z,99371.56
2018-02-03T00:27:37.384Z,99375.35
2018-02-03T00:28:43.527Z,99375.20
2018-02-03T00:29:49.675Z,99374.57
2018-02-03T00:30:55.812Z,99373.68
2018-02-03T00:32:01.706Z,99379.64
2018-02-03T00:33:07.865Z,99376.84
2018-02-03T00:34:14.012Z,99376.41
2018-02-03T00:35:19.458Z,99376.09
2018-02-03T00:36:26.526Z,99378.25
2018-02-03T00:37:32.656Z,99376.77
2018-02-03T00:38:38.840Z,99377.47
2018-02-03T00:39:45.021Z,99376.17
2018-02-03T00:40:51.153Z,99378.14
2018-02-03T00:41:57.005Z,99380.64
2018-02-03T00:43:03.201Z,99378.70
2018-02-03T00:44:09.098Z,99371.53
2018-02-03T00:45:15.338Z,99371.33
2018-02-03T00:46:21.483Z,99372.45
2018-02-03T00:47:27.676Z,99374.31
2018-02-03T00:48:32.926Z,99377.60
2018-02-03T00:49:39.089Z,99375.39
2018-02-03T00:50:45.222Z,99378.97
2018-02-03T00:51:51.953Z,99384.83
2018-02-03T00:52:58.094Z,99384.72
2018-02-03T00:54:04.276Z,99384.20
2018-02-03T00:55:10.222Z,99385.93
2018-02-03T00:56:16.144Z,99386.72
2018-02-03T00:57:22.335Z,99384.14
2018-02-03T00:58:28.444Z,99388.27
2018-02-03T00:59:34.589Z,99382.10
2018-02-03T01:00:40.828Z,99383.78
2018-02-03T01:01:46.986Z,99385.60
2018-02-03T01:02:53.131Z,99385.67
2018-02-03T01:03:59.008Z,99385.94
2018-02-03T01:05:04.992Z,99390.41
2018-02-03T01:06:10.876Z,99381.59
2018-02-03T01:07:16.774Z,99384.77
2018-02-03T01:08:22.673Z,99388.27
2018-02-03T01:09:28.896Z,99386.94
2018-02-03T01:10:37.476Z,99389.81
2018-02-03T01:11:43.607Z,99391.61
2018-02-03T01:12:49.456Z,99387.12
2018-02-03T01:13:55.664Z,99385.76
2018-02-03T01:15:01.783Z,99383.57
2018-02-03T01:16:07.957Z,99386.61
2018-02-03T01:17:14.090Z,99381.81
2018-02-03T01:18:20.471Z,99386.89
2018-02-03T01:19:26.841Z,99386.78
2018-02-03T01:20:33.008Z,99382.14
2018-02-03T01:21:39.206Z,99388.31
2018-02-03T01:22:45.370Z,99385.39
2018-02-03T01:23:51.529Z,99390.48
2018-02-03T01:24:57.735Z,99391.52
2018-02-03T01:26:03.912Z,99397.05
2018-02-03T01:27:10.435Z,99394.86
2018-02-03T01:28:16.639Z,99399.31
2018-02-03T01:29:22.783Z,99395.53
2018-02-03T01:30:28.910Z,99401.78
2018-02-03T01:31:35.411Z,99406.30
2018-02-03T01:32:41.562Z,99411.84
2018-02-03T01:33:47.691Z,99403.64
2018-02-03T01:34:54.744Z,99404.13
2018-02-03T01:36:00.892Z,99406.98
2018-02-03T01:37:07.085Z,99405.73
2018-02-03T01:38:13.268Z,99407.96
2018-02-03T01:39:19.431Z,99406.42
2018-02-03T01:40:25.579Z,99405.13
2018-02-03T01:41:31.516Z,99410.73
2018-02-03T01:42:37.631Z,99400.46
2018-02-03T01:43:43.982Z,99400.04
2018-02-03T01:44:50.105Z,99400.89
2018-02-03T01:45:56.239Z,99396.90
2018-02-03T01:47:02.388Z,99397.38
2018-02-03T01:48:08.380Z,99396.10
2018-02-03T01:49:14.535Z,99393.25
2018-02-03T01:50:20.346Z,99399.28
2018-02-03T01:51:26.665Z,99395.34
2018-02-03T01:52:32.820Z,99393.85
2018-02-03T01:53:38.929Z,99393.31
2018-02-03T01:54:45.105Z,99395.66
2018-02-03T01:55:51.260Z,99393.31
2018-02-03T01:56:57.359Z,99391.55
2018-02-03T01:58:03.516Z,99388.06
2018-02-03T01:59:09.640Z,99385.30
2018-02-03T02:00:15.520Z,99378.89
2018-02-03T02:01:21.026Z,99380.55
2018-02-03T02:02:27.153Z,99385.37
2018-02-03T02:03:33.295Z,99383.00
2018-02-03T02:04:39.437Z,99386.47
2018-02-03T02:05:45.553Z,99393.30
2018-02-03T02:06:51.340Z,99384.54
2018-02-03T02:07:57.521Z,99378.14
2018-02-03T02:09:03.626Z,99377.63
2018-02-03T02:10:09.811Z,99371.47
2018-02-03T02:11:21.047Z,99375.67
2018-02-03T02:12:27.154Z,99374.89
2018-02-03T02:13:33.371Z,99377.02
2018-02-03T02:14:39.516Z,99369.27
2018-02-03T02:15:45.647Z,99365.38
2018-02-03T02:16:51.756Z,99366.36
2018-02-03T02:18:00.920Z,99365.03
2018-02-03T02:19:07.085Z,99357.05
2018-02-03T02:20:12.924Z,99360.94
2018-02-03T02:21:19.042Z,99356.54
2018-02-03T02:22:25.164Z,99352.98
2018-02-03T02:23:31.418Z,99348.54
2018-02-03T02:24:37.596Z,99357.27
2018-02-03T02:25:43.747Z,99348.56
2018-02-03T02:26:49.874Z,99348.82
2018-02-03T02:27:56.082Z,99348.98
2018-02-03T02:29:01.511Z,99342.06
2018-02-03T02:30:07.625Z,99344.66
2018-02-03T02:31:14.474Z,99341.85
2018-02-03T02:32:20.646Z,99344.05
2018-02-03T02:33:27.401Z,99342.81
2018-02-03T02:34:33.484Z,99340.34
2018-02-03T02:35:39.640Z,99339.44
2018-02-03T02:36:45.808Z,99346.67
2018-02-03T02:37:52.025Z,99345.50
2018-02-03T02:38:57.935Z,99344.20
2018-02-03T02:40:04.063Z,99345.66
2018-02-03T02:41:10.296Z,99360.55
2018-02-03T02:42:16.080Z,99352.78
2018-02-03T02:43:22.041Z,99353.45
2018-02-03T02:44:28.193Z,99363.86
2018-02-03T02:45:34.322Z,99356.24
2018-02-03T02:46:47.926Z,99356.39
2018-02-03T02:47:54.078Z,99357.22
2018-02-03T02:49:00.210Z,99355.96
2018-02-03T02:50:15.160Z,99357.97
2018-02-03T02:51:21.117Z,99357.67
2018-02-03T02:52:26.644Z,99361.01
2018-02-03T02:53:32.804Z,99365.36
2018-02-03T02:54:38.996Z,99364.70
2018-02-03T02:55:45.129Z,99367.74
2018-02-03T02:56:50.598Z,99368.85
2018-02-03T02:57:56.748Z,99369.98
2018-02-03T02:59:03.006Z,99368.85
2018-02-03T03:00:09.198Z,99367.98
2018-02-03T03:01:15.510Z,99367.16
2018-02-03T03:02:21.659Z,99373.16
2018-02-03T03:03:27.799Z,99364.63
2018-02-03T03:04:33.975Z,99369.22
2018-02-03T03:05:40.120Z,99370.02
2018-02-03T03:06:46.296Z,99367.84
2018-02-03T03:07:52.435Z,99369.88
2018-02-03T03:08:58.816Z,99373.23
2018-02-03T03:10:05.042Z,99368.25
2018-02-03T03:11:11.183Z,99373.73
2018-02-03T03:12:17.402Z,99369.04
2018-02-03T03:13:23.449Z,99368.61
2018-02-03T03:14:29.640Z,99371.91
2018-02-03T03:15:35.751Z,99369.67
2018-02-03T03:16:41.905Z,99373.19
2018-02-03T03:17:48.105Z,99375.31
2018-02-03T03:18:54.008Z,99373.16
2018-02-03T03:20:00.295Z,99375.50
2018-02-03T03:21:07.423Z,99371.42
2018-02-03T03:22:13.304Z,99379.01
2018-02-03T03:23:19.459Z,99376.20
2018-02-03T03:24:25.630Z,99378.61
2018-02-03T03:25:31.742Z,99380.73
2018-02-03T03:26:37.041Z,99377.42
2018-02-03T03:27:43.343Z,99380.70
2018-02-03T03:28:49.495Z,99373.77
2018-02-03T03:29:55.664Z,99376.87
2018-02-03T03:31:01.832Z,99377.81
2018-02-03T03:32:07.623Z,99375.23
2018-02-03T03:33:13.819Z,99375.21
2018-02-03T03:34:20.939Z,99372.91
2018-02-03T03:35:27.107Z,99380.02
2018-02-03T03:36:33.286Z,99372.44
2018-02-03T03:37:39.420Z,99367.80
2018-02-03T03:38:45.295Z,99373.02
2018-02-03T03:39:51.474Z,99366.27
2018-02-03T03:40:57.654Z,99376.23
2018-02-03T03:42:03.865Z,99372.28
2018-02-03T03:43:09.999Z,99378.70
2018-02-03T03:44:16.168Z,99379.83
2018-02-03T03:45:22.372Z,99379.12
2018-02-03T03:46:28.462Z,99378.28
2018-02-03T03:47:34.654Z,99377.53
2018-02-03T03:48:40.107Z,99378.53
2018-02-03T03:49:46.371Z,99381.52
2018-02-03T03:50:52.571Z,99385.30
2018-02-03T03:52:02.419Z,99390.66
2018-02-03T03:53:08.572Z,99385.53
2018-02-03T03:54:14.716Z,99387.70
2018-02-03T03:55:20.655Z,99389.02
2018-02-03T03:56:27.096Z,99392.45
2018-02-03T03:57:35.757Z,99397.25
2018-02-03T03:58:41.929Z,99397.66
2018-02-03T03:59:48.129Z,99397.27
2018-02-03T04:00:54.323Z,99397.13
2018-02-03T04:02:03.442Z,99398.10
2018-02-03T04:03:09.410Z,99395.65
2018-02-03T04:04:15.549Z,99391.41
2018-02-03T04:05:21.685Z,99393.05
2018-02-03T04:06:28.051Z,99393.02
2018-02-03T04:07:34.048Z,99383.15
2018-02-03T04:08:40.002Z,99391.26
2018-02-03T04:09:46.144Z,99387.93
2018-02-03T04:10:52.294Z,99393.05
2018-02-03T04:11:58.611Z,99387.70
2018-02-03T04:13:04.762Z,99390.02
2018-02-03T04:14:10.932Z,99397.46
2018-02-03T04:15:16.900Z,99399.41
2018-02-03T04:16:22.808Z,99405.64
2018-02-03T04:17:28.934Z,99405.64
2018-02-03T04:18:34.852Z,99402.62
2018-02-03T04:19:41.000Z,99407.42
2018-02-03T04:20:47.134Z,99404.12
2018-02-03T04:21:52.688Z,99406.96
2018-02-03T04:22:58.849Z,99411.95
2018-02-03T04:24:04.987Z,99407.97
2018-02-03T04:25:11.113Z,99409.25
2018-02-03T04:26:17.258Z,99407.64
2018-02-03T04:27:23.363Z,99408.07
2018-02-03T04:28:29.495Z,99404.48
2018-02-03T04:29:35.592Z,99407.09
2018-02-03T04:30:40.904Z,99410.91
2018-02-03T04:31:47.047Z,99406.14
2018-02-03T04:32:53.168Z,99418.25
2018-02-03T04:33:59.334Z,99417.92
2018-02-03T04:35:05.484Z,99407.01
2018-02-03T04:36:11.659Z,99411.31
2018-02-03T04:37:18.123Z,99408.41
2018-02-03T04:38:24.296Z,99411.09
2018-02-03T04:39:30.467Z,99414.90
2018-02-03T04:40:36.601Z,99406.67
2018-02-03T04:41:42.761Z,99408.29
2018-02-03T04:42:48.396Z,99421.44
2018-02-03T04:43:54.677Z,99406.77
2018-02-03T04:45:00.856Z,99404.64
2018-02-03T04:46:06.989Z,99410.34
2018-02-03T04:47:13.164Z,99401.28
2018-02-03T04:48:19.284Z,99404.20
2018-02-03T04:49:25.433Z,99398.98
2018-02-03T04:50:31.352Z,99397.58
2018-02-03T04:51:37.465Z,99396.39
2018-02-03T04:52:43.582Z,99391.97
2018-02-03T04:53:49.704Z,99398.06
2018-02-03T04:54:55.900Z,99396.57
2018-02-03T04:56:02.056Z,99399.50
2018-02-03T04:57:08.179Z,99395.88
2018-02-03T04:58:14.402Z,99400.95
2018-02-03T04:59:20.520Z,99395.55
2018-02-03T05:00:26.633Z,99397.66
2018-02-03T05:01:32.780Z,99399.50
2018-02-03T05:02:39.034Z,99403.20
2018-02-03T05:03:45.227Z,99397.67
2018-02-03T05:04:51.360Z,99398.68
2018-02-03T05:05:57.208Z,99401.34
2018-02-03T05:07:03.298Z,99399.98
2018-02-03T05:08:09.424Z,99399.52
2018-02-03T05:09:15.561Z,99399.07
2018-02-03T05:10:21.085Z,99396.91
2018-02-03T05:11:27.360Z,99399.86
2018-02-03T05:12:38.579Z,99397.33
2018-02-03T05:13:44.772Z,99396.68
2018-02-03T05:14:50.927Z,99398.78
2018-02-03T05:15:57.114Z,99401.83
2018-02-03T05:17:03.256Z,99399.92
2018-02-03T05:18:09.556Z,99404.38
2018-02-03T05:19:15.716Z,99405.02
2018-02-03T05:20:21.851Z,99402.35
2018-02-03T05:21:27.998Z,99405.03
2018-02-03T05:22:33.863Z,99406.45
2018-02-03T05:23:39.998Z,99399.07
2018-02-03T05:24:48.607Z,99399.99
2018-02-03T05:25:54.898Z,99396.19
2018-02-03T05:27:01.024Z,99397.50
2018-02-03T05:28:07.161Z,99390.61
2018-02-03T05:29:13.276Z,99396.27
2018-02-03T05:30:19.430Z,99389.66
2018-02-03T05:31:25.601Z,99391.83
2018-02-03T05:32:31.728Z,99392.16
2018-02-03T05:33:37.898Z,99396.18
2018-02-03T05:34:43.815Z,99394.97
2018-02-03T05:35:49.997Z,99397.33
2018-02-03T05:36:56.117Z,99399.45
2018-02-03T05:38:02.097Z,99396.95
2018-02-03T05:39:07.687Z,99405.38
2018-02-03T05:40:13.689Z,99400.44
2018-02-03T05:41:19.790Z,99399.77
2018-02-03T05:42:26.159Z,99405.71
2018-02-03T05:43:32.184Z,99403.89
2018-02-03T05:46:10.071Z,99405.02
2018-02-03T05:47:15.323Z,99401.56
2018-02-03T05:48:21.258Z,99409.33
2018-02-03T05:49:27.189Z,99409.93
2018-02-03T05:50:33.116Z,99400.19
2018-02-03T05:51:39.295Z,99403.97
2018-02-03T05:52:45.008Z,99410.26
2018-02-03T05:53:51.178Z,99410.30
2018-02-03T05:54:57.310Z,99406.53
2018-02-03T05:56:03.229Z,99411.30
2018-02-03T05:57:09.352Z,99403.33
2018-02-03T05:58:15.456Z,99408.70
2018-02-03T05:59:21.608Z,99407.06
2018-02-03T06:00:31.679Z,99410.95
2018-02-03T06:01:38.011Z,99408.92
2018-02-03T06:02:44.444Z,99409.13
2018-02-03T06:03:50.652Z,99404.06
2018-02-03T06:04:56.811Z,99404.64
2018-02-03T06:06:02.947Z,99409.93
2018-02-03T06:07:09.086Z,99410.42
2018-02-03T06:08:15.318Z,99407.95
2018-02-03T06:09:21.333Z,99412.51
2018-02-03T06:10:27.492Z,99412.72
2018-02-03T06:11:33.765Z,99416.83
2018-02-03T06:12:40.225Z,99414.66
2018-02-03T06:13:46.813Z,99414.48
2018-02-03T06:14:53.060Z,99418.13
2018-02-03T06:15:59.907Z,99420.59
2018-02-03T06:17:06.051Z,99413.58
2018-02-03T06:18:14.959Z,99412.55
2018-02-03T06:19:21.093Z,99408.84
2018-02-03T06:20:27.241Z,99410.20
2018-02-03T06:21:33.364Z,99413.55
2018-02-03T06:22:39.501Z,99418.01
2018-02-03T06:23:45.731Z,99419.41
2018-02-03T06:24:51.860Z,99421.39
2018-02-03T06:25:57.967Z,99419.91
2018-02-03T06:27:04.140Z,99422.10
2018-02-03T06:28:10.298Z,99425.41
2018-02-03T06:29:16.424Z,99423.44
2018-02-03T06:30:22.613Z,99427.85
2018-02-03T06:31:28.747Z,99422.64
2018-02-03T06:32:34.869Z,99423.63
2018-02-03T06:33:41.020Z,99421.67
2018-02-03T06:34:47.275Z,99425.16
2018-02-03T06:35:53.387Z,99425.70
2018-02-03T06:36:59.504Z,99422.28
2018-02-03T06:38:05.689Z,99427.02
2018-02-03T06:39:11.644Z,99424.82
2018-02-03T06:40:17.829Z,99422.16
2018-02-03T06:41:23.951Z,99419.77
2018-02-03T06:42:30.110Z,99429.84
2018-02-03T06:43:36.306Z,99427.84
2018-02-03T06:44:42.589Z,99432.50
2018-02-03T06:45:49.071Z,99427.84
2018-02-03T06:46:55.308Z,99429.51
2018-02-03T06:48:01.448Z,99438.31
2018-02-03T06:49:07.616Z,99435.45
2018-02-03T06:50:13.767Z,99445.08
2018-02-03T06:51:19.959Z,99438.77
2018-02-03T06:52:26.074Z,99437.61
2018-02-03T06:53:32.238Z,99438.98
2018-02-03T06:54:38.416Z,99438.91
2018-02-03T06:55:44.215Z,99439.88
2018-02-03T06:56:50.402Z,99442.77
2018-02-03T06:58:05.982Z,99454.22
2018-02-03T06:59:12.162Z,99450.58
2018-02-03T07:00:18.330Z,99446.75
2018-02-03T07:01:24.489Z,99451.50
2018-02-03T07:02:30.609Z,99451.12
2018-02-03T07:03:36.821Z,99460.16
2018-02-03T07:04:42.992Z,99456.39
2018-02-03T07:05:49.128Z,99461.48
2018-02-03T07:06:55.300Z,99460.48
2018-02-03T07:08:01.540Z,99457.16
2018-02-03T07:09:07.354Z,99460.31
2018-02-03T07:10:13.547Z,99460.11
2018-02-03T07:11:19.684Z,99456.72
2018-02-03T07:12:25.368Z,99458.76
2018-02-03T07:13:31.554Z,99463.26
2018-02-03T07:14:37.568Z,99464.97
2018-02-03T07:15:49.446Z,99462.23
2018-02-03T07:16:55.607Z,99466.36
2018-02-03T07:18:01.779Z,99459.74
2018-02-03T07:19:07.947Z,99462.34
2018-02-03T07:20:14.412Z,99457.38
2018-02-03T07:21:20.197Z,99464.30
2018-02-03T07:22:28.255Z,99468.07
2018-02-03T07:23:38.903Z,99466.15
2018-02-03T07:24:44.856Z,99460.92
2018-02-03T07:25:50.866Z,99465.67
2018-02-03T07:26:57.044Z,99462.77
2018-02-03T07:28:03.181Z,99465.28
2018-02-03T07:29:08.184Z,99464.75
2018-02-03T07:30:14.175Z,99469.41
2018-02-03T07:31:20.031Z,99470.67
2018-02-03T07:32:25.908Z,99466.06
2018-02-03T07:33:32.148Z,99466.97
2018-02-03T07:34:38.334Z,99469.89
2018-02-03T07:35:44.618Z,99471.55
2018-02-03T07:36:50.797Z,99464.75
2018-02-03T07:37:56.947Z,99470.93
2018-02-03T07:39:02.472Z,99466.36
2018-02-03T07:40:08.372Z,99471.36
2018-02-03T07:41:14.548Z,99471.33
2018-02-03T07:42:21.424Z,99477.19
2018-02-03T07:43:27.869Z,99479.32
2018-02-03T07:44:34.103Z,99478.10
2018-02-03T07:45:39.359Z,99471.12
2018-02-03T07:46:45.614Z,99469.71
2018-02-03T07:47:51.941Z,99473.06
2018-02-03T07:48:57.413Z,99466.94
2018-02-03T07:50:03.584Z,99471.55
2018-02-03T07:51:09.761Z,99472.21
2018-02-03T07:52:15.927Z,99472.41
2018-02-03T07:53:22.150Z,99479.63
2018-02-03T07:54:28.457Z,99475.63
2018-02-03T07:55:34.595Z,99479.75
2018-02-03T07:56:40.394Z,99476.12
2018-02-03T07:57:47.035Z,99475.04
2018-02-03T07:58:53.993Z,99480.45
2018-02-03T08:00:01.056Z,99468.77
2018-02-03T08:01:07.752Z,99473.18
2018-02-03T08:02:14.597Z,99474.61
2018-02-03T08:03:21.527Z,99473.94
2018-02-03T08:04:28.510Z,99473.79
2018-02-03T08:05:36.637Z,99477.14
2018-02-03T08:06:42.944Z,99473.82
2018-02-03T08:07:49.846Z,99478.59
2018-02-03T08:08:56.452Z,99474.94
2018-02-03T08:10:03.315Z,99476.66
2018-02-03T08:11:10.007Z,99476.76
2018-02-03T08:12:21.392Z,99478.45
2018-02-03T08:13:28.166Z,99477.14
2018-02-03T08:14:35.034Z,99487.16
2018-02-03T08:15:41.805Z,99478.17
2018-02-03T08:16:48.625Z,99476.42
2018-02-03T08:17:55.316Z,99480.73
2018-02-03T08:19:01.984Z,99477.81
2018-02-03T08:20:08.551Z,99475.55
2018-02-03T08:21:15.183Z,99479.11
2018-02-03T08:22:23.325Z,99478.34
2018-02-03T08:23:30.069Z,99478.65
2018-02-03T08:24:36.851Z,99483.84
2018-02-03T08:25:43.048Z,99478.60
2018-02-03T08:26:49.892Z,99478.38
2018-02-03T08:27:56.958Z,99475.63
2018-02-03T08:29:03.376Z,99483.48
2018-02-03T08:30:10.016Z,99482.45
2018-02-03T08:31:16.484Z,99476.95
2018-02-03T08:32:23.104Z,99480.65
2018-02-03T08:33:29.930Z,99480.02
2018-02-03T08:34:35.855Z,99477.31
2018-02-03T08:35:42.501Z,99476.34
2018-02-03T08:36:48.768Z,99475.23
2018-02-03T08:37:55.984Z,99477.37
2018-02-03T08:39:02.383Z,99477.95
2018-02-03T08:40:08.899Z,99478.97
2018-02-03T08:41:15.074Z,99476.64
2018-02-03T08:42:21.815Z,99472.38
2018-02-03T08:43:29.189Z,99473.34
2018-02-03T08:44:36.078Z,99467.02
2018-02-03T08:45:43.239Z,99471.62
2018-02-03T08:46:49.770Z,99471.34
2018-02-03T08:47:56.414Z,99471.33
2018-02-03T08:49:03.099Z,99466.38
2018-02-03T08:50:19.404Z,99467.10
2018-02-03T08:51:26.022Z,99467.46
2018-02-03T08:52:32.987Z,99460.22
2018-02-03T08:53:39.763Z,99463.09
2018-02-03T08:54:47.254Z,99464.97
2018-02-03T08:55:54.253Z,99463.67
2018-02-03T08:57:01.064Z,99468.10
2018-02-03T08:58:17.102Z,99470.22
2018-02-03T08:59:24.122Z,99463.20
2018-02-03T09:00:31.464Z,99462.61
2018-02-03T09:01:37.774Z,99465.17
2018-02-03T09:02:43.968Z,99466.26
2018-02-03T09:03:50.544Z,99465.27
2018-02-03T09:04:57.316Z,99466.67
2018-02-03T09:06:04.784Z,99465.06
2018-02-03T09:07:12.764Z,99463.98
2018-02-03T09:08:19.758Z,99461.48
2018-02-03T09:09:26.549Z,99462.11
2018-02-03T09:10:33.607Z,99456.39
2018-02-03T09:13:12.111Z,99458.05
2018-02-03T09:14:18.961Z,99457.28
2018-02-03T09:15:25.853Z,99455.84
2018-02-03T09:16:32.896Z,99458.67
2018-02-03T09:17:39.981Z,99454.13
2018-02-03T09:18:46.829Z,99448.83
2018-02-03T09:19:52.891Z,99450.56
2018-02-03T09:20:59.937Z,99450.13
2018-02-03T09:22:06.762Z,99445.69
2018-02-03T09:23:13.894Z,99454.47
2018-02-03T09:24:20.657Z,99449.99
2018-02-03T09:25:27.650Z,99454.00
2018-02-03T09:26:34.367Z,99452.37
2018-02-03T09:27:41.176Z,99452.92
2018-02-03T09:28:48.094Z,99453.58
2018-02-03T09:29:55.349Z,99458.55
2018-02-03T09:31:02.092Z,99451.20
2018-02-03T09:32:08.897Z,99454.44
2018-02-03T09:33:15.884Z,99450.15
2018-02-03T09:34:22.902Z,99449.91
2018-02-03T09:35:29.941Z,99449.73
2018-02-03T09:36:36.863Z,99445.99
2018-02-03T09:37:43.696Z,99445.59
2018-02-03T09:38:50.645Z,99449.59
2018-02-03T09:39:57.495Z,99446.33
2018-02-03T09:41:04.261Z,99444.05
2018-02-03T09:42:11.445Z,99442.48
2018-02-03T09:43:19.034Z,99444.73
2018-02-03T09:44:25.812Z,99441.59
2018-02-03T09:45:32.330Z,99443.73
2018-02-03T09:46:38.823Z,99439.83
2018-02-03T09:47:46.159Z,99440.83
2018-02-03T09:48:52.834Z,99441.19
2018-02-03T09:49:59.879Z,99442.91
2018-02-03T09:51:11.072Z,99443.98
2018-02-03T09:52:17.383Z,99448.64
2018-02-03T09:53:23.981Z,99455.22
2018-02-03T09:54:31.272Z,99453.92
2018-02-03T09:55:37.925Z,99460.55
2018-02-03T09:56:44.377Z,99460.59
2018-02-03T09:57:51.156Z,99458.91
2018-02-03T09:58:57.476Z,99459.54
2018-02-03T10:00:09.514Z,99452.22
2018-02-03T10:01:15.737Z,99458.76
2018-02-03T10:02:21.332Z,99461.70
2018-02-03T10:03:27.573Z,99462.13
2018-02-03T10:04:33.776Z,99461.61
2018-02-03T10:05:39.660Z,99464.38
2018-02-03T10:06:45.140Z,99465.04
2018-02-03T10:07:51.327Z,99455.95
2018-02-03T10:08:57.565Z,99459.87
2018-02-03T10:10:03.866Z,99459.01
2018-02-03T10:11:10.140Z,99461.70
2018-02-03T10:12:16.320Z,99451.48
2018-02-03T10:13:22.532Z,99461.23
2018-02-03T10:14:28.777Z,99456.25
2018-02-03T10:15:34.998Z,99455.05
2018-02-03T10:16:41.180Z,99455.94
2018-02-03T10:17:47.442Z,99452.29
2018-02-03T10:18:53.649Z,99456.77
2018-02-03T10:19:59.831Z,99448.89
2018-02-03T10:21:07.193Z,99453.23
2018-02-03T10:22:13.451Z,99450.70
2018-02-03T10:23:19.727Z,99451.19
2018-02-03T10:24:25.899Z,99451.15
2018-02-03T10:25:32.076Z,99446.84
2018-02-03T10:26:38.534Z,99448.78
2018-02-03T10:27:44.928Z,99440.12
2018-02-03T10:28:51.146Z,99436.13
2018-02-03T10:29:57.323Z,99434.32
2018-02-03T10:31:03.508Z,99436.24
2018-02-03T10:32:09.437Z,99438.00
2018-02-03T10:33:15.611Z,99430.70
2018-02-03T10:34:21.867Z,99425.73
2018-02-03T10:35:28.208Z,99430.83
2018-02-03T10:36:34.403Z,99430.30
2018-02-03T10:37:40.613Z,99432.13
2018-02-03T10:38:46.872Z,99429.62
2018-02-03T10:39:53.104Z,99434.66
2018-02-03T10:40:59.382Z,99430.57
2018-02-03T10:42:05.586Z,99429.59
2018-02-03T10:43:11.813Z,99433.59
2018-02-03T10:44:18.644Z,99440.90
2018-02-03T10:45:24.890Z,99437.58
2018-02-03T10:46:31.202Z,99441.06
2018-02-03T10:47:37.442Z,99441.80
2018-02-03T10:48:43.776Z,99436.80
2018-02-03T10:49:49.989Z,99434.52
2018-02-03T10:50:56.147Z,99437.45
2018-02-03T10:52:02.343Z,99441.33
2018-02-03T10:53:08.591Z,99440.20
2018-02-03T10:54:14.811Z,99438.33
2018-02-03T10:55:20.981Z,99435.73
2018-02-03T10:56:27.185Z,99439.86
2018-02-03T10:57:33.157Z,99445.69
2018-02-03T10:58:39.345Z,99443.96
2018-02-03T10:59:45.475Z,99441.01
2018-02-03T11:00:50.799Z,99440.31
2018-02-03T11:01:56.941Z,99449.02
2018-02-03T11:03:02.832Z,99446.59
2018-02-03T11:04:08.626Z,99445.44
2018-02-03T11:05:17.608Z,99444.41
2018-02-03T11:06:24.734Z,99450.53
2018-02-03T11:07:31.015Z,99444.80
2018-02-03T11:08:37.250Z,99446.73
2018-02-03T11:09:43.485Z,99442.44
2018-02-03T11:10:48.972Z,99440.24
2018-02-03T11:11:55.193Z,99439.00
2018-02-03T11:13:02.208Z,99433.34
2018-02-03T11:14:08.372Z,99438.55
2018-02-03T11:15:14.624Z,99436.88
2018-02-03T11:16:20.948Z,99439.56
2018-02-03T11:17:27.084Z,99435.39
2018-02-03T11:18:33.262Z,99438.53
2018-02-03T11:19:40.718Z,99439.25
2018-02-03T11:20:47.643Z,99431.30
2018-02-03T11:21:53.808Z,99433.45
2018-02-03T11:22:59.981Z,99429.91
2018-02-03T11:24:06.211Z,99424.45
2018-02-03T11:25:12.424Z,99428.13
2018-02-03T11:26:18.313Z,99424.52
2018-02-03T11:27:24.486Z,99427.42
2018-02-03T11:28:31.455Z,99420.74
2018-02-03T11:29:37.726Z,99415.83
2018-02-03T11:30:43.747Z,99420.63
2018-02-03T11:31:49.983Z,99416.40
2018-02-03T11:32:56.189Z,99423.33
2018-02-03T11:34:02.401Z,99423.44
2018-02-03T11:35:08.551Z,99425.21
2018-02-03T11:36:14.780Z,99424.59
2018-02-03T11:37:20.576Z,99426.80
2018-02-03T11:38:26.771Z,99429.47
2018-02-03T11:39:32.677Z,99431.14
2018-02-03T11:40:38.908Z,99427.41
2018-02-03T11:41:50.728Z,99423.10
2018-02-03T11:42:56.946Z,99423.94
2018-02-03T11:44:02.489Z,99422.94
2018-02-03T11:45:08.649Z,99423.77
2018-02-03T11:46:14.812Z,99424.80
2018-02-03T11:47:26.396Z,99425.78
2018-02-03T11:48:32.644Z,99424.95
2018-02-03T11:49:38.876Z,99423.84
2018-02-03T11:50:45.329Z,99425.09
2018-02-03T11:51:51.541Z,99425.52
2018-02-03T11:52:57.756Z,99421.23
2018-02-03T11:54:04.004Z,99420.27
2018-02-03T11:55:10.233Z,99421.70
2018-02-03T11:56:17.157Z,99423.27
2018-02-03T11:57:23.364Z,99423.72
2018-02-03T11:58:29.317Z,99422.22
2018-02-03T11:59:37.355Z,99430.64
2018-02-03T12:00:43.192Z,99426.95
2018-02-03T12:01:49.620Z,99425.66
2018-02-03T12:02:55.228Z,99429.47
2018-02-03T12:04:01.450Z,99428.36
2018-02-03T12:05:07.341Z,99425.94
2018-02-03T12:06:13.561Z,99428.98
2018-02-03T12:07:19.773Z,99423.17
2018-02-03T12:08:26.016Z,99425.00
2018-02-03T12:09:32.258Z,99421.22
2018-02-03T12:10:38.747Z,99422.02
2018-02-03T12:11:44.964Z,99424.38
2018-02-03T12:12:52.401Z,99419.77
2018-02-03T12:13:59.205Z,99419.08
2018-02-03T12:15:05.399Z,99412.58
2018-02-03T12:16:11.346Z,99414.97
2018-02-03T12:17:17.533Z,99417.15
2018-02-03T12:18:23.755Z,99414.00
2018-02-03T12:19:29.964Z,99421.34
2018-02-03T12:20:36.180Z,99414.42
2018-02-03T12:21:42.404Z,99421.36
2018-02-03T12:22:48.586Z,99423.60
2018-02-03T12:23:54.780Z,99425.69
2018-02-03T12:25:00.972Z,99423.05
2018-02-03T12:26:07.308Z,99427.92
2018-02-03T12:27:13.592Z,99430.77
2018-02-03T12:28:19.820Z,99426.48
2018-02-03T12:29:25.724Z,99428.42
2018-02-03T12:30:31.874Z,99427.23
2018-02-03T12:31:38.062Z,99422.00
2018-02-03T12:32:44.304Z,99428.53
2018-02-03T12:33:50.488Z,99431.45
2018-02-03T12:34:56.439Z,99427.42
2018-02-03T12:36:02.677Z,99434.38
2018-02-03T12:37:08.873Z,99427.40
2018-02-03T12:38:15.043Z,99431.03
2018-02-03T12:39:21.288Z,99435.64
2018-02-03T12:40:27.286Z,99430.59
2018-02-03T12:41:33.497Z,99432.07
2018-02-03T12:42:39.670Z,99432.22
2018-02-03T12:43:45.847Z,99429.34
2018-02-03T12:44:52.049Z,99431.43
2018-02-03T12:45:58.448Z,99420.64
2018-02-03T12:47:04.396Z,99428.84
2018-02-03T12:48:10.456Z,99417.58
2018-02-03T12:49:16.484Z,99418.69
2018-02-03T12:50:23.488Z,99416.63
2018-02-03T12:51:29.685Z,99422.55
2018-02-03T12:52:35.688Z,99419.30
2018-02-03T12:53:41.887Z,99421.48
2018-02-03T12:54:47.899Z,99417.78
2018-02-03T12:55:55.083Z,99418.77
2018-02-03T12:57:01.287Z,99410.80
2018-02-03T12:58:07.523Z,99406.02
2018-02-03T12:59:13.703Z,99406.79
2018-02-03T13:00:19.907Z,99406.89
2018-02-03T13:01:26.152Z,99406.45
2018-02-03T13:02:32.331Z,99405.66